Time;durP1;ratioP1;P1;durP2;ratioP2;P2;SDS_P1;SDS_P2;PMS_P1;PMS_P2;Temp;Humidity;BMP_temperature;BMP_pressure;BME280_temperature;BME280_humidity;BME280_pressure;Samples;Min_cycle;Max_cycle;Signal;HPM_P1;HPM_P2
2024/02/27 00:02:10;;;;;;;35.65;25.17;;;;;;;;;;4985912;28;20231;-80
2024/02/27 00:04:36;;;;;;;36.60;24.10;;;;;;;;;;4981483;28;20185;-81
2024/02/27 00:07:02;;;;;;;35.17;27.45;;;;;;;;;;4981565;28;20227;-81
2024/02/27 00:09:28;;;;;;;36.15;24.15;;;;;;;;;;4986595;28;20177;-81
2024/02/27 00:11:54;;;;;;;35.70;26.25;;;;;;;;;;4986031;28;20177;-80
2024/02/27 00:14:20;;;;;;;36.78;26.02;;;;;;;;;;5000159;28;20198;-81
2024/02/27 00:16:46;;;;;;;36.17;25.25;;;;;;;;;;4981383;28;20586;-81
2024/02/27 00:19:12;;;;;;;37.58;25.85;;;;;;;;;;5000483;28;20179;-81
2024/02/27 00:21:38;;;;;;;35.50;25.07;;;;;;;;;;4994222;28;20183;-81
2024/02/27 00:24:04;;;;;;;44.22;26.50;;;;;;;;;;4964215;28;20438;-80
2024/02/27 00:26:30;;;;;;;36.97;27.55;;;;;;;;;;5003822;28;20184;-81
2024/02/27 00:28:56;;;;;;;39.17;26.52;;;;;;;;;;4978577;28;20689;-81
2024/02/27 00:31:22;;;;;;;41.90;27.80;;;;;;;;;;4982656;28;20184;-81
2024/02/27 00:33:48;;;;;;;39.10;27.47;;;;;;;;;;4984940;28;20450;-81
2024/02/27 00:36:14;;;;;;;32.40;22.40;;;;;;;;;;4983680;28;20820;-81
2024/02/27 00:38:40;;;;;;;44.43;31.27;;;;;;;;;;4979764;28;20446;-81
2024/02/27 00:41:07;;;;;;;38.75;27.02;;;;;;;;;;4983421;28;20469;-80
2024/02/27 00:43:33;;;;;;;41.42;27.25;;;;;;;;;;5003306;28;20186;-81
2024/02/27 00:45:59;;;;;;;43.53;26.23;;;;;;;;;;4983783;28;20663;-81
2024/02/27 00:48:25;;;;;;;41.58;27.42;;;;;;;;;;4984943;28;20202;-81
2024/02/27 00:50:51;;;;;;;42.00;28.80;;;;;;;;;;4999866;28;20184;-81
2024/02/27 00:53:21;;;;;;;37.40;26.48;;;;;;;;;;4998999;28;20438;-81
2024/02/27 00:55:47;;;;;;;39.03;27.50;;;;;;;;;;4997493;28;20219;-81
2024/02/27 00:58:13;;;;;;;41.83;27.50;;;;;;;;;;4998516;28;20715;-81
2024/02/27 01:00:39;;;;;;;40.53;29.85;;;;;;;;;;4999173;28;20445;-81
2024/02/27 01:03:05;;;;;;;37.40;28.80;;;;;;;;;;4982426;28;20253;-81
2024/02/27 01:05:31;;;;;;;38.42;26.10;;;;;;;;;;4997087;28;20455;-81
2024/02/27 01:07:56;;;;;;;37.85;29.23;;;;;;;;;;4996649;28;20259;-81
2024/02/27 01:10:22;;;;;;;36.70;26.20;;;;;;;;;;4993914;28;20254;-82
2024/02/27 01:12:49;;;;;;;40.17;26.33;;;;;;;;;;5002646;28;20454;-81
2024/02/27 01:15:15;;;;;;;42.58;29.45;;;;;;;;;;4996011;28;20216;-81
2024/02/27 01:17:41;;;;;;;37.60;26.27;;;;;;;;;;4998834;28;20195;-82
2024/02/27 01:20:07;;;;;;;43.43;28.33;;;;;;;;;;4979254;28;20276;-81
2024/02/27 01:22:33;;;;;;;42.70;27.63;;;;;;;;;;4992086;28;20425;-81
2024/02/27 01:25:00;;;;;;;38.60;27.65;;;;;;;;;;4998444;28;20171;-81
2024/02/27 01:27:26;;;;;;;46.20;30.60;;;;;;;;;;4983612;28;20279;-81
2024/02/27 01:29:53;;;;;;;38.72;29.20;;;;;;;;;;4996067;28;20184;-82
2024/02/27 01:32:20;;;;;;;43.70;28.48;;;;;;;;;;4995562;28;20188;-81
2024/02/27 01:34:46;;;;;;;37.38;25.83;;;;;;;;;;4996823;28;20187;-81
2024/02/27 01:37:12;;;;;;;39.22;27.13;;;;;;;;;;4999562;28;20188;-81
2024/02/27 01:39:38;;;;;;;42.95;27.10;;;;;;;;;;5008692;28;20644;-81
2024/02/27 01:42:04;;;;;;;41.90;27.85;;;;;;;;;;4995994;28;20198;-82
2024/02/27 01:44:30;;;;;;;42.13;26.80;;;;;;;;;;4991841;28;20207;-81
2024/02/27 01:46:57;;;;;;;41.50;29.00;;;;;;;;;;4989674;28;20273;-81
2024/02/27 01:49:23;;;;;;;43.40;28.15;;;;;;;;;;4997794;28;20189;-82
2024/02/27 01:51:49;;;;;;;38.50;26.48;;;;;;;;;;4981005;28;20221;-81
2024/02/27 01:54:19;;;;;;;38.17;26.00;;;;;;;;;;4985978;28;20275;-81
2024/02/27 01:56:45;;;;;;;40.55;26.23;;;;;;;;;;5001454;28;20266;-81
2024/02/27 01:59:12;;;;;;;40.72;27.05;;;;;;;;;;4997821;28;20594;-81
2024/02/27 02:01:39;;;;;;;40.33;27.83;;;;;;;;;;4979050;28;20184;-81
2024/02/27 02:04:08;;;;;;;37.78;26.77;;;;;;;;;;4980096;28;20220;-81
2024/02/27 02:06:36;;;;;;;38.25;26.23;;;;;;;;;;4996972;28;20327;-81
2024/02/27 02:09:02;;;;;;;34.38;25.30;;;;;;;;;;4996760;28;20181;-81
2024/02/27 02:11:28;;;;;;;35.30;25.60;;;;;;;;;;4997934;28;20183;-81
2024/02/27 02:13:54;;;;;;;42.13;28.40;;;;;;;;;;4982040;28;20550;-81
2024/02/27 02:16:20;;;;;;;36.17;25.88;;;;;;;;;;4999019;28;20244;-81
2024/02/27 02:18:47;;;;;;;47.78;28.25;;;;;;;;;;4993357;28;20193;-81
2024/02/27 02:21:14;;;;;;;38.63;26.60;;;;;;;;;;5000080;28;20177;-81
2024/02/27 02:23:40;;;;;;;42.55;27.90;;;;;;;;;;4990105;28;20195;-81
2024/02/27 02:26:06;;;;;;;37.95;27.52;;;;;;;;;;4997479;28;20654;-82
2024/02/27 02:28:32;;;;;;;35.88;25.85;;;;;;;;;;4979700;28;20222;-81
2024/02/27 02:30:59;;;;;;;38.10;26.30;;;;;;;;;;5008191;28;20260;-81
2024/02/27 02:33:25;;;;;;;41.25;28.05;;;;;;;;;;4998658;28;20179;-80
2024/02/27 02:35:51;;;;;;;38.47;26.52;;;;;;;;;;4999954;28;20234;-80
2024/02/27 02:38:17;;;;;;;39.38;26.55;;;;;;;;;;5002731;28;20189;-81
2024/02/27 02:40:43;;;;;;;40.53;25.23;;;;;;;;;;4997347;28;20179;-80
2024/02/27 02:43:09;;;;;;;41.90;27.27;;;;;;;;;;4997440;28;20439;-80
2024/02/27 02:45:35;;;;;;;40.97;28.65;;;;;;;;;;4996386;28;20524;-81
2024/02/27 02:48:01;;;;;;;42.33;28.07;;;;;;;;;;4995453;28;20265;-81
2024/02/27 02:50:31;;;;;;;41.20;26.50;;;;;;;;;;4995749;28;20436;-80
2024/02/27 02:52:57;;;;;;;41.05;28.50;;;;;;;;;;4999250;28;20888;-80
2024/02/27 02:55:23;;;;;;;37.70;27.08;;;;;;;;;;4991653;28;20654;-81
2024/02/27 02:57:49;;;;;;;35.23;25.97;;;;;;;;;;4996554;28;20189;-80
2024/02/27 03:00:15;;;;;;;40.60;26.00;;;;;;;;;;4995214;28;20450;-80
2024/02/27 03:02:41;;;;;;;40.30;26.20;;;;;;;;;;4995123;28;20432;-81
2024/02/27 03:05:12;;;;;;;37.93;27.07;;;;;;;;;;4994292;28;20187;-81
2024/02/27 03:07:38;;;;;;;44.65;29.65;;;;;;;;;;4982203;28;20827;-81
2024/02/27 03:10:04;;;;;;;39.03;26.30;;;;;;;;;;4998197;28;20201;-81
2024/02/27 03:12:30;;;;;;;42.20;27.83;;;;;;;;;;4994851;28;20434;-80
2024/02/27 03:14:56;;;;;;;39.58;24.17;;;;;;;;;;4994833;28;20222;-80
2024/02/27 03:17:22;;;;;;;41.05;27.33;;;;;;;;;;4995870;28;20185;-81
2024/02/27 03:19:48;;;;;;;41.13;26.92;;;;;;;;;;4997123;28;20669;-81
2024/02/27 03:22:14;;;;;;;41.47;27.00;;;;;;;;;;5003892;28;20522;-81
2024/02/27 03:24:43;;;;;;;38.13;27.23;;;;;;;;;;4984578;28;20192;-80
2024/02/27 03:27:08;;;;;;;39.95;27.20;;;;;;;;;;4996291;28;20430;-80
2024/02/27 03:29:34;;;;;;;41.07;25.57;;;;;;;;;;4988397;28;20288;-81
2024/02/27 03:32:00;;;;;;;38.40;25.60;;;;;;;;;;4996578;28;20831;-80
2024/02/27 03:34:26;;;;;;;39.47;28.23;;;;;;;;;;4995427;28;20442;-81
2024/02/27 03:36:53;;;;;;;39.13;26.35;;;;;;;;;;5000679;28;20541;-81
2024/02/27 03:39:19;;;;;;;42.85;28.10;;;;;;;;;;5002705;28;20187;-80
2024/02/27 03:41:45;;;;;;;36.03;23.27;;;;;;;;;;4997668;28;20190;-81
2024/02/27 03:44:11;;;;;;;38.40;26.03;;;;;;;;;;4982227;28;20234;-80
2024/02/27 03:46:37;;;;;;;37.87;26.80;;;;;;;;;;5005580;28;20429;-81
2024/02/27 03:49:03;;;;;;;38.00;25.03;;;;;;;;;;5000862;28;20482;-81
2024/02/27 03:51:29;;;;;;;40.27;24.90;;;;;;;;;;4998600;28;20498;-81
2024/02/27 03:53:55;;;;;;;37.00;25.47;;;;;;;;;;5001459;28;20458;-81
2024/02/27 03:56:22;;;;;;;39.13;25.43;;;;;;;;;;4999521;28;20463;-81
2024/02/27 03:58:48;;;;;;;40.20;26.40;;;;;;;;;;4985833;28;20442;-80
2024/02/27 04:01:17;;;;;;;34.75;23.90;;;;;;;;;;4996532;28;20182;-81
2024/02/27 04:03:43;;;;;;;43.78;26.58;;;;;;;;;;5003451;28;20214;-81
2024/02/27 04:06:11;;;;;;;44.47;28.20;;;;;;;;;;4999867;28;20239;-80
2024/02/27 04:08:37;;;;;;;38.95;27.75;;;;;;;;;;5001053;28;20217;-80
2024/02/27 04:11:04;;;;;;;37.78;25.58;;;;;;;;;;4966289;28;20189;-81
2024/02/27 04:13:30;;;;;;;44.00;26.65;;;;;;;;;;4981639;28;20191;-81
2024/02/27 04:15:56;;;;;;;36.63;24.52;;;;;;;;;;4998541;28;20711;-81
2024/02/27 04:18:22;;;;;;;35.88;25.58;;;;;;;;;;4976693;28;20182;-81
2024/02/27 04:20:48;;;;;;;37.85;26.70;;;;;;;;;;4998496;28;20604;-81
2024/02/27 04:23:14;;;;;;;35.30;24.80;;;;;;;;;;4999624;28;20180;-81
2024/02/27 04:25:40;;;;;;;42.30;26.60;;;;;;;;;;4982023;28;20482;-81
2024/02/27 04:28:06;;;;;;;39.90;26.92;;;;;;;;;;4998140;28;20451;-81
2024/02/27 04:30:32;;;;;;;42.97;26.90;;;;;;;;;;5000204;28;20188;-81
2024/02/27 04:32:58;;;;;;;38.67;26.38;;;;;;;;;;4984010;28;20203;-80
2024/02/27 04:35:24;;;;;;;41.10;27.88;;;;;;;;;;5003519;28;20207;-81
2024/02/27 04:37:50;;;;;;;41.20;26.00;;;;;;;;;;4999469;28;20187;-81
2024/02/27 04:40:16;;;;;;;44.03;28.00;;;;;;;;;;4999429;28;20184;-81
2024/02/27 04:42:42;;;;;;;38.88;25.63;;;;;;;;;;4999444;28;20701;-81
2024/02/27 04:45:08;;;;;;;39.03;25.87;;;;;;;;;;4980755;28;20282;-80
2024/02/27 04:47:34;;;;;;;41.45;26.83;;;;;;;;;;4997524;28;20773;-81
2024/02/27 04:50:00;;;;;;;39.55;27.42;;;;;;;;;;4998938;28;20186;-81
2024/02/27 04:52:26;;;;;;;41.22;26.92;;;;;;;;;;4982365;28;20550;-81
2024/02/27 04:54:52;;;;;;;37.50;26.10;;;;;;;;;;4999166;28;20193;-81
2024/02/27 04:57:20;;;;;;;43.53;28.00;;;;;;;;;;4997125;28;20979;-81
2024/02/27 04:59:47;;;;;;;38.75;25.55;;;;;;;;;;4997711;28;20821;-81
2024/02/27 05:02:13;;;;;;;40.67;26.42;;;;;;;;;;4999933;28;20183;-81
2024/02/27 05:04:39;;;;;;;41.60;25.77;;;;;;;;;;5003725;28;20654;-80
2024/02/27 05:07:05;;;;;;;39.42;27.45;;;;;;;;;;4999480;28;20288;-80
2024/02/27 05:09:31;;;;;;;44.10;27.27;;;;;;;;;;4982042;28;20283;-80
2024/02/27 05:11:57;;;;;;;41.60;28.05;;;;;;;;;;4996690;28;20434;-81
2024/02/27 05:14:25;;;;;;;45.97;29.60;;;;;;;;;;4999397;28;20670;-81
2024/02/27 05:16:51;;;;;;;44.53;26.85;;;;;;;;;;4997655;28;20220;-81
2024/02/27 05:19:18;;;;;;;42.57;29.30;;;;;;;;;;4998298;28;20258;-80
2024/02/27 05:21:44;;;;;;;38.95;27.38;;;;;;;;;;4999355;28;20426;-81
2024/02/27 05:24:10;;;;;;;41.57;27.07;;;;;;;;;;4997610;28;20599;-81
2024/02/27 05:26:36;;;;;;;42.33;26.93;;;;;;;;;;4982823;28;20438;-81
2024/02/27 05:29:02;;;;;;;39.53;27.17;;;;;;;;;;4997382;28;20904;-80
2024/02/27 05:31:29;;;;;;;42.50;28.45;;;;;;;;;;4999624;28;20181;-81
2024/02/27 05:33:56;;;;;;;40.15;26.80;;;;;;;;;;4998817;28;20195;-80
2024/02/27 05:36:23;;;;;;;42.00;27.58;;;;;;;;;;4988199;28;20223;-81
2024/02/27 05:38:50;;;;;;;42.85;27.63;;;;;;;;;;4986045;28;20208;-80
2024/02/27 05:41:17;;;;;;;46.50;28.88;;;;;;;;;;4998106;28;20183;-81
2024/02/27 05:43:43;;;;;;;42.00;28.63;;;;;;;;;;5002040;28;20215;-81
2024/02/27 05:46:09;;;;;;;44.47;27.40;;;;;;;;;;4995109;28;20242;-80
2024/02/27 05:48:39;;;;;;;44.70;27.35;;;;;;;;;;4995401;28;20415;-81
2024/02/27 05:51:06;;;;;;;40.60;26.33;;;;;;;;;;4993875;28;20180;-80
2024/02/27 05:53:35;;;;;;;39.78;27.42;;;;;;;;;;4994527;28;20187;-80
2024/02/27 05:56:01;;;;;;;42.83;26.85;;;;;;;;;;5002898;28;20222;-81
2024/02/27 05:58:27;;;;;;;44.97;29.80;;;;;;;;;;5002403;28;20180;-81
2024/02/27 06:00:54;;;;;;;44.13;30.00;;;;;;;;;;4998144;28;20190;-81
2024/02/27 06:03:20;;;;;;;42.10;27.15;;;;;;;;;;4993459;28;20242;-81
2024/02/27 06:05:46;;;;;;;43.38;27.75;;;;;;;;;;4979605;28;20651;-80
2024/02/27 06:08:13;;;;;;;37.88;27.02;;;;;;;;;;4996073;28;20184;-81
2024/02/27 06:10:39;;;;;;;44.13;26.83;;;;;;;;;;4981417;28;20187;-80
2024/02/27 06:13:05;;;;;;;44.42;29.30;;;;;;;;;;4996819;28;20191;-81
2024/02/27 06:15:31;;;;;;;45.97;27.60;;;;;;;;;;4990784;28;20215;-80
2024/02/27 06:17:57;;;;;;;43.43;28.03;;;;;;;;;;5001723;28;20501;-81
2024/02/27 06:23:07;;;;;;;41.00;27.45;;;;;;;;;;5000716;28;20202;-80
2024/02/27 06:25:33;;;;;;;43.70;27.30;;;;;;;;;;5002030;28;20190;-81
2024/02/27 06:27:59;;;;;;;42.37;25.93;;;;;;;;;;4998382;28;20427;-81
2024/02/27 06:30:25;;;;;;;41.28;25.80;;;;;;;;;;5001450;28;20429;-80
2024/02/27 06:32:52;;;;;;;42.17;28.00;;;;;;;;;;4981907;28;20175;-82
2024/02/27 06:35:18;;;;;;;41.33;28.20;;;;;;;;;;4999305;28;20489;-82
2024/02/27 06:37:44;;;;;;;45.72;27.45;;;;;;;;;;4987710;28;20188;-81
2024/02/27 06:40:10;;;;;;;41.00;26.50;;;;;;;;;;4990692;28;20242;-81
2024/02/27 06:42:36;;;;;;;43.13;28.83;;;;;;;;;;4996590;28;20432;-81
2024/02/27 06:45:06;;;;;;;42.55;27.48;;;;;;;;;;4979274;28;20215;-81
2024/02/27 06:47:32;;;;;;;41.17;27.73;;;;;;;;;;4980855;28;20179;-82
2024/02/27 06:49:59;;;;;;;44.35;26.17;;;;;;;;;;5002350;28;20198;-82
2024/02/27 06:52:27;;;;;;;42.78;26.05;;;;;;;;;;5000925;28;20259;-81
2024/02/27 06:54:53;;;;;;;48.80;28.05;;;;;;;;;;4993440;28;20262;-81
2024/02/27 06:57:19;;;;;;;42.00;27.38;;;;;;;;;;4997091;28;20183;-81
2024/02/27 06:59:45;;;;;;;46.53;27.13;;;;;;;;;;4996987;28;20198;-81
2024/02/27 07:02:12;;;;;;;42.90;26.98;;;;;;;;;;4989443;28;20426;-82
2024/02/27 07:04:38;;;;;;;45.05;28.60;;;;;;;;;;4996809;28;20262;-81
2024/02/27 07:07:04;;;;;;;46.60;29.20;;;;;;;;;;4998379;28;20235;-81
2024/02/27 07:09:31;;;;;;;39.97;26.55;;;;;;;;;;4974197;28;20210;-81
2024/02/27 07:11:59;;;;;;;42.40;29.77;;;;;;;;;;4994922;28;20207;-81
2024/02/27 07:14:26;;;;;;;42.95;26.80;;;;;;;;;;4986733;28;20175;-81
2024/02/27 07:16:52;;;;;;;45.42;28.98;;;;;;;;;;4995981;28;20192;-82
2024/02/27 07:19:19;;;;;;;43.90;28.33;;;;;;;;;;4992648;28;20196;-81
2024/02/27 07:21:46;;;;;;;43.50;29.55;;;;;;;;;;5008436;28;20522;-82
2024/02/27 07:24:12;;;;;;;43.25;27.63;;;;;;;;;;4995937;28;20189;-81
2024/02/27 07:26:38;;;;;;;46.08;31.52;;;;;;;;;;5002408;28;20273;-82
2024/02/27 07:29:04;;;;;;;45.53;29.20;;;;;;;;;;5009726;28;20265;-81
2024/02/27 07:31:30;;;;;;;41.37;28.13;;;;;;;;;;4996770;28;20184;-81
2024/02/27 07:33:57;;;;;;;44.20;27.73;;;;;;;;;;4990095;28;20544;-81
2024/02/27 07:36:23;;;;;;;47.70;31.98;;;;;;;;;;4999409;28;20237;-81
2024/02/27 07:38:49;;;;;;;45.42;28.75;;;;;;;;;;4996052;28;20188;-81
2024/02/27 07:41:16;;;;;;;43.47;28.95;;;;;;;;;;4996534;28;20243;-81
2024/02/27 07:43:42;;;;;;;48.57;29.20;;;;;;;;;;4994896;28;20195;-82
2024/02/27 07:46:12;;;;;;;49.17;30.17;;;;;;;;;;4993707;28;20451;-82
2024/02/27 07:48:38;;;;;;;43.50;26.95;;;;;;;;;;4997151;28;20450;-82
2024/02/27 07:51:04;;;;;;;46.13;27.43;;;;;;;;;;4996381;28;20188;-82
2024/02/27 07:53:30;;;;;;;44.38;29.52;;;;;;;;;;4993845;28;20922;-81
2024/02/27 07:55:56;;;;;;;43.88;28.77;;;;;;;;;;5000883;28;20607;-82
2024/02/27 07:58:22;;;;;;;47.07;30.40;;;;;;;;;;4991219;28;20194;-82
2024/02/27 08:00:48;;;;;;;51.83;34.20;;;;;;;;;;4995182;28;20849;-81
2024/02/27 08:03:14;;;;;;;44.42;30.35;;;;;;;;;;4994151;28;20435;-82
2024/02/27 08:05:40;;;;;;;42.83;29.30;;;;;;;;;;4981486;28;20218;-82
2024/02/27 08:08:06;;;;;;;46.83;30.27;;;;;;;;;;4996707;28;20459;-81
2024/02/27 08:10:32;;;;;;;50.85;29.85;;;;;;;;;;4990322;28;20426;-82
2024/02/27 08:12:58;;;;;;;49.88;30.80;;;;;;;;;;4995389;28;20192;-82
2024/02/27 08:15:24;;;;;;;48.30;29.13;;;;;;;;;;4998965;28;20279;-81
2024/02/27 08:17:50;;;;;;;47.70;29.50;;;;;;;;;;4996015;28;20815;-82
2024/02/27 08:20:16;;;;;;;47.50;30.07;;;;;;;;;;4994993;28;20185;-81
2024/02/27 08:22:42;;;;;;;49.45;30.58;;;;;;;;;;4977044;28;20431;-81
2024/02/27 08:25:08;;;;;;;47.70;30.50;;;;;;;;;;4988783;28;20193;-81
2024/02/27 08:27:35;;;;;;;46.70;30.60;;;;;;;;;;4999535;28;20505;-81
2024/02/27 08:30:03;;;;;;;42.67;28.80;;;;;;;;;;4998652;28;20674;-80
2024/02/27 08:32:29;;;;;;;47.80;29.90;;;;;;;;;;5001960;28;20687;-82
2024/02/27 08:34:55;;;;;;;44.70;28.93;;;;;;;;;;4981882;28;20179;-81
2024/02/27 08:37:23;;;;;;;42.33;28.30;;;;;;;;;;4999641;28;20450;-81
2024/02/27 08:39:49;;;;;;;40.78;26.67;;;;;;;;;;5001933;28;20437;-82
2024/02/27 08:42:15;;;;;;;44.53;29.10;;;;;;;;;;4991315;28;20179;-82
2024/02/27 08:44:41;;;;;;;46.27;29.20;;;;;;;;;;5000621;28;20260;-81
2024/02/27 08:47:08;;;;;;;41.25;28.23;;;;;;;;;;5000231;28;20433;-82
2024/02/27 08:49:34;;;;;;;44.95;30.60;;;;;;;;;;4990227;28;20186;-81
2024/02/27 08:52:00;;;;;;;45.47;26.50;;;;;;;;;;4998912;28;20191;-81
2024/02/27 08:54:26;;;;;;;43.47;28.63;;;;;;;;;;4984175;28;20474;-81
2024/02/27 08:56:52;;;;;;;39.30;27.37;;;;;;;;;;4998185;28;20497;-81
2024/02/27 08:59:18;;;;;;;34.75;24.90;;;;;;;;;;4983854;28;20460;-94
2024/02/27 09:01:44;;;;;;;39.08;26.55;;;;;;;;;;5008170;28;20239;-93
2024/02/27 09:04:10;;;;;;;38.40;27.25;;;;;;;;;;5003786;28;20210;-80
2024/02/27 09:06:41;;;;;;;42.10;26.50;;;;;;;;;;4998813;28;20340;-80
2024/02/27 09:09:07;;;;;;;40.15;26.90;;;;;;;;;;4999828;28;20432;-80
2024/02/27 09:11:33;;;;;;;37.38;25.80;;;;;;;;;;5001214;28;20181;-81
2024/02/27 09:13:59;;;;;;;37.73;24.97;;;;;;;;;;5000310;28;20197;-80
2024/02/27 09:16:25;;;;;;;39.20;24.40;;;;;;;;;;4999017;28;20569;-80
2024/02/27 09:18:51;;;;;;;54.42;37.63;;;;;;;;;;5006499;28;20410;-80
2024/02/27 09:21:17;;;;;;;43.73;26.83;;;;;;;;;;4986986;28;20189;-81
2024/02/27 09:23:43;;;;;;;35.20;24.83;;;;;;;;;;4998966;28;20424;-79
2024/02/27 09:26:09;;;;;;;34.63;23.50;;;;;;;;;;4999119;28;20807;-80
2024/02/27 09:28:35;;;;;;;32.72;23.92;;;;;;;;;;4998833;28;20929;-80
2024/02/27 09:31:04;;;;;;;31.98;23.40;;;;;;;;;;4997538;28;20194;-80
2024/02/27 09:33:30;;;;;;;32.78;23.98;;;;;;;;;;4998009;28;20190;-80
2024/02/27 09:35:56;;;;;;;33.88;23.33;;;;;;;;;;5001525;28;20214;-80
2024/02/27 09:38:22;;;;;;;34.95;25.20;;;;;;;;;;4998669;28;20200;-80
2024/02/27 09:40:50;;;;;;;31.60;22.93;;;;;;;;;;5001632;28;20183;-80
2024/02/27 09:43:21;;;;;;;31.05;24.15;;;;;;;;;;4998928;28;20954;-80
2024/02/27 09:45:47;;;;;;;32.08;24.33;;;;;;;;;;4998466;28;20238;-80
2024/02/27 09:48:17;;;;;;;33.80;23.38;;;;;;;;;;4998693;28;20198;-81
2024/02/27 09:50:44;;;;;;;32.65;21.33;;;;;;;;;;4998069;28;20262;-81
2024/02/27 09:53:11;;;;;;;36.20;22.67;;;;;;;;;;4998198;28;20693;-81
2024/02/27 09:55:37;;;;;;;29.83;22.42;;;;;;;;;;4980516;28;20227;-80
2024/02/27 09:58:03;;;;;;;35.97;24.67;;;;;;;;;;4998018;28;20183;-81
2024/02/27 10:00:30;;;;;;;32.25;23.85;;;;;;;;;;4998200;28;20488;-81
2024/02/27 10:02:55;;;;;;;33.47;22.33;;;;;;;;;;4998317;28;20183;-81
2024/02/27 10:05:23;;;;;;;31.80;22.20;;;;;;;;;;4997803;28;20198;-79
2024/02/27 10:07:50;;;;;;;29.08;22.10;;;;;;;;;;4993988;28;20545;-79
2024/02/27 10:10:16;;;;;;;27.65;22.55;;;;;;;;;;5005300;28;20268;-81
2024/02/27 10:12:42;;;;;;;34.95;22.58;;;;;;;;;;4997182;28;20187;-81
2024/02/27 10:15:08;;;;;;;34.03;23.67;;;;;;;;;;4996076;28;20219;-81
2024/02/27 10:17:37;;;;;;;30.90;23.63;;;;;;;;;;4996853;28;20431;-80
2024/02/27 10:20:10;;;;;;;31.77;22.58;;;;;;;;;;5001595;28;20176;-80
2024/02/27 10:22:36;;;;;;;29.67;22.65;;;;;;;;;;4995887;28;20183;-80
2024/02/27 10:25:06;;;;;;;29.70;22.50;;;;;;;;;;4998033;28;20532;-80
2024/02/27 10:27:33;;;;;;;30.85;22.92;;;;;;;;;;4993774;28;20431;-80
2024/02/27 10:29:59;;;;;;;35.97;24.60;;;;;;;;;;5000234;28;20206;-80
2024/02/27 10:32:25;;;;;;;32.58;22.38;;;;;;;;;;4976063;28;20183;-80
2024/02/27 10:34:54;;;;;;;28.40;21.67;;;;;;;;;;4997283;28;20191;-80
2024/02/27 10:37:24;;;;;;;30.92;20.52;;;;;;;;;;4997632;28;20476;-80
2024/02/27 10:39:50;;;;;;;29.80;21.48;;;;;;;;;;5006294;28;20178;-81
2024/02/27 10:42:16;;;;;;;29.70;23.17;;;;;;;;;;4991920;28;20189;-80
2024/02/27 10:44:42;;;;;;;34.30;24.48;;;;;;;;;;4998154;28;20183;-81
2024/02/27 10:47:10;;;;;;;30.90;22.30;;;;;;;;;;4997193;28;20190;-80
2024/02/27 10:49:36;;;;;;;33.65;23.20;;;;;;;;;;5002236;28;20195;-80
2024/02/27 10:52:03;;;;;;;31.60;23.27;;;;;;;;;;4999567;28;20274;-80
2024/02/27 10:54:29;;;;;;;30.13;22.13;;;;;;;;;;4998355;28;20469;-81
2024/02/27 10:56:57;;;;;;;29.50;22.27;;;;;;;;;;5001808;28;20241;-81
2024/02/27 10:59:27;;;;;;;32.95;23.58;;;;;;;;;;4997278;28;20175;-81
2024/02/27 11:01:53;;;;;;;29.30;22.50;;;;;;;;;;4998246;28;20167;-81
2024/02/27 11:04:23;;;;;;;32.28;22.38;;;;;;;;;;5001777;28;20191;-81
2024/02/27 11:06:50;;;;;;;29.65;23.90;;;;;;;;;;4996538;28;20231;-81
2024/02/27 11:09:18;;;;;;;29.23;22.75;;;;;;;;;;4998668;28;20247;-81
2024/02/27 11:11:47;;;;;;;30.00;22.65;;;;;;;;;;4996756;28;20234;-81
2024/02/27 11:14:14;;;;;;;30.90;23.25;;;;;;;;;;4997173;28;20555;-80
2024/02/27 11:16:43;;;;;;;32.72;22.35;;;;;;;;;;4997286;28;20214;-81
2024/02/27 11:19:21;;;;;;;29.80;22.63;;;;;;;;;;4997158;28;20244;-79
2024/02/27 11:21:48;;;;;;;32.38;23.30;;;;;;;;;;5006344;28;20182;-81
2024/02/27 11:24:15;;;;;;;30.10;22.85;;;;;;;;;;4998429;28;20518;-81
2024/02/27 11:26:41;;;;;;;31.48;22.83;;;;;;;;;;4989795;28;20183;-79
2024/02/27 11:29:07;;;;;;;34.60;23.45;;;;;;;;;;4997299;28;20237;-80
2024/02/27 11:31:34;;;;;;;30.05;23.10;;;;;;;;;;4997368;28;20183;-81
2024/02/27 11:34:01;;;;;;;27.45;21.65;;;;;;;;;;4999078;28;20184;-80
2024/02/27 11:36:27;;;;;;;30.52;21.77;;;;;;;;;;4997176;28;20742;-81
2024/02/27 11:38:53;;;;;;;29.65;22.92;;;;;;;;;;4994542;28;20195;-81
2024/02/27 11:41:21;;;;;;;29.87;22.13;;;;;;;;;;4996910;28;20195;-81
2024/02/27 11:43:48;;;;;;;27.48;20.45;;;;;;;;;;4995118;28;20431;-80
2024/02/27 11:46:34;;;;;;;26.55;21.40;;;;;;;;;;4998480;28;20259;-81
2024/02/27 11:49:01;;;;;;;28.83;21.83;;;;;;;;;;4998043;28;20659;-80
2024/02/27 11:51:29;;;;;;;29.33;21.95;;;;;;;;;;4995042;28;20226;-81
2024/02/27 11:53:56;;;;;;;31.83;21.83;;;;;;;;;;4996539;28;20190;-79
2024/02/27 11:56:26;;;;;;;30.27;21.35;;;;;;;;;;4995477;28;20242;-81
2024/02/27 11:58:52;;;;;;;26.42;20.02;;;;;;;;;;4993898;28;20666;-81
2024/02/27 12:01:19;;;;;;;29.92;21.80;;;;;;;;;;4996734;28;20298;-79
2024/02/27 12:03:48;;;;;;;29.73;21.98;;;;;;;;;;4999241;28;20180;-81
2024/02/27 12:06:14;;;;;;;29.10;20.40;;;;;;;;;;4999664;28;20666;-80
2024/02/27 12:08:50;;;;;;;31.77;22.38;;;;;;;;;;5001082;28;20628;-81
2024/02/27 12:11:16;;;;;;;29.95;21.85;;;;;;;;;;5001124;28;20596;-81
2024/02/27 12:13:46;;;;;;;28.38;21.33;;;;;;;;;;5005421;28;20218;-79
2024/02/27 12:16:12;;;;;;;31.45;21.48;;;;;;;;;;4999639;28;20211;-80
2024/02/27 12:18:39;;;;;;;28.10;21.07;;;;;;;;;;4999534;28;20238;-80
2024/02/27 12:21:05;;;;;;;26.73;20.30;;;;;;;;;;5000335;28;20418;-81
2024/02/27 12:23:31;;;;;;;33.45;20.52;;;;;;;;;;5006836;28;20189;-81
2024/02/27 12:25:58;;;;;;;32.03;22.38;;;;;;;;;;5006020;28;20550;-81
2024/02/27 12:28:24;;;;;;;26.60;20.70;;;;;;;;;;5002267;28;20179;-80
2024/02/27 12:30:50;;;;;;;26.80;20.08;;;;;;;;;;5003344;28;20788;-79
2024/02/27 12:33:17;;;;;;;28.80;21.67;;;;;;;;;;5000490;28;20643;-80
2024/02/27 12:35:43;;;;;;;25.75;19.27;;;;;;;;;;4999556;28;20214;-80
2024/02/27 12:38:09;;;;;;;30.65;20.58;;;;;;;;;;5007542;28;20270;-80
2024/02/27 12:40:36;;;;;;;27.92;21.23;;;;;;;;;;4997776;28;20187;-81
2024/02/27 12:43:02;;;;;;;33.58;23.05;;;;;;;;;;4981290;28;20672;-81
2024/02/27 12:45:31;;;;;;;29.13;20.95;;;;;;;;;;4998488;28;20205;-81
2024/02/27 12:47:58;;;;;;;28.15;20.58;;;;;;;;;;4995466;28;20171;-80
2024/02/27 12:50:24;;;;;;;30.00;21.30;;;;;;;;;;4995033;28;20184;-80
2024/02/27 12:52:53;;;;;;;35.05;23.67;;;;;;;;;;4998577;28;20266;-81
2024/02/27 12:55:20;;;;;;;36.20;24.42;;;;;;;;;;4999255;28;20315;-81
2024/02/27 12:57:56;;;;;;;30.13;22.92;;;;;;;;;;4998730;28;20180;-80
2024/02/27 13:00:23;;;;;;;34.92;23.10;;;;;;;;;;4999180;28;20586;-81
2024/02/27 13:02:55;;;;;;;33.10;22.92;;;;;;;;;;5002230;28;20632;-81
2024/02/27 13:05:22;;;;;;;31.30;22.73;;;;;;;;;;5001104;28;20635;-81
2024/02/27 13:07:49;;;;;;;33.42;23.15;;;;;;;;;;4999699;28;20714;-80
2024/02/27 13:10:19;;;;;;;39.42;23.20;;;;;;;;;;4999759;28;20263;-80
2024/02/27 13:12:45;;;;;;;35.92;23.85;;;;;;;;;;4999793;28;20195;-79
2024/02/27 13:15:11;;;;;;;35.38;23.48;;;;;;;;;;4999433;28;20210;-80
2024/02/27 13:17:37;;;;;;;32.17;21.90;;;;;;;;;;5000767;28;20192;-80
2024/02/27 13:20:03;;;;;;;39.93;23.10;;;;;;;;;;4998019;28;20427;-80
2024/02/27 13:22:29;;;;;;;33.33;23.52;;;;;;;;;;5006650;28;20426;-80
2024/02/27 13:24:56;;;;;;;36.70;25.17;;;;;;;;;;5000068;28;20187;-81
2024/02/27 13:27:22;;;;;;;35.17;24.20;;;;;;;;;;5002098;28;20234;-80
2024/02/27 13:29:48;;;;;;;36.10;26.23;;;;;;;;;;4998877;28;20183;-81
2024/02/27 13:32:14;;;;;;;36.93;26.57;;;;;;;;;;5009749;28;20502;-80
2024/02/27 13:34:40;;;;;;;37.22;25.70;;;;;;;;;;4999112;28;20426;-81
2024/02/27 13:37:06;;;;;;;38.00;25.03;;;;;;;;;;5006817;28;20221;-80
2024/02/27 13:39:32;;;;;;;38.22;26.15;;;;;;;;;;5004680;28;20403;-81
2024/02/27 13:42:02;;;;;;;33.10;24.02;;;;;;;;;;4998331;28;20187;-81
2024/02/27 13:44:28;;;;;;;37.53;24.85;;;;;;;;;;4981935;28;20223;-81
2024/02/27 13:46:54;;;;;;;38.30;25.40;;;;;;;;;;4998255;28;20203;-81
2024/02/27 13:49:21;;;;;;;37.10;25.70;;;;;;;;;;5001515;28;20442;-81
2024/02/27 13:51:47;;;;;;;35.78;23.17;;;;;;;;;;5002056;28;20505;-80
2024/02/27 13:54:13;;;;;;;37.20;25.38;;;;;;;;;;4997974;28;20180;-81
2024/02/27 13:56:39;;;;;;;36.70;24.80;;;;;;;;;;4997023;28;20297;-79
2024/02/27 13:59:05;;;;;;;35.43;23.93;;;;;;;;;;4998736;28;20660;-81
2024/02/27 14:01:32;;;;;;;35.05;23.30;;;;;;;;;;4997914;28;20919;-80
2024/02/27 14:03:58;;;;;;;41.25;24.45;;;;;;;;;;4997045;28;20652;-81
2024/02/27 14:06:24;;;;;;;44.15;25.50;;;;;;;;;;4997456;28;20235;-81
2024/02/27 14:08:50;;;;;;;37.30;25.40;;;;;;;;;;5004912;28;20211;-81
2024/02/27 14:11:16;;;;;;;33.97;23.83;;;;;;;;;;5001956;28;20195;-81
2024/02/27 14:13:45;;;;;;;33.87;22.93;;;;;;;;;;4996835;28;20191;-81
2024/02/27 14:16:11;;;;;;;36.42;24.67;;;;;;;;;;5001769;28;20558;-80